Time;durP1;ratioP1;P1;durP2;ratioP2;P2;SDS_P1;SDS_P2;PMS_P1;PMS_P2;Temp;Humidity;BMP_temperature;BMP_pressure;BME280_temperature;BME280_humidity;BME280_pressure;Samples;Min_cycle;Max_cycle;Signal;HPM_P1;HPM_P2
2024/02/01 00:00:54;;;;;;;2.53;2.33;;;6.10;99.90;;;;;;4976911;28;20225;-72
2024/02/01 00:03:19;;;;;;;3.00;2.10;;;6.10;99.90;;;;;;4982706;28;20214;-73
2024/02/01 00:05:45;;;;;;;4.10;2.93;;;6.10;99.90;;;;;;4982040;28;20241;-72
2024/02/01 00:08:11;;;;;;;5.87;2.50;;;6.10;99.90;;;;;;4992882;28;20210;-72
2024/02/01 00:10:37;;;;;;;2.33;2.10;;;6.20;99.90;;;;;;4972030;28;20222;-73
2024/02/01 00:13:02;;;;;;;3.67;2.20;;;6.20;99.90;;;;;;4981072;28;20222;-73
2024/02/01 00:15:29;;;;;;;3.83;2.50;;;6.20;99.90;;;;;;4976904;28;20273;-73
2024/02/01 00:17:55;;;;;;;3.47;3.00;;;6.30;99.90;;;;;;4964200;28;20225;-73
2024/02/01 00:20:20;;;;;;;2.67;2.00;;;6.30;99.90;;;;;;4980494;28;20453;-74
2024/02/01 00:22:46;;;;;;;3.67;1.87;;;6.30;99.90;;;;;;4976511;28;20265;-73
2024/02/01 00:25:12;;;;;;;2.67;2.20;;;6.30;99.90;;;;;;4986187;28;20237;-73
2024/02/01 00:27:37;;;;;;;2.43;1.80;;;6.30;99.90;;;;;;4959491;28;20214;-73
2024/02/01 00:30:03;;;;;;;7.03;2.43;;;6.30;99.90;;;;;;4979208;28;20253;-73
2024/02/01 00:32:31;;;;;;;2.43;1.97;;;6.30;99.90;;;;;;4972911;28;20306;-73
2024/02/01 00:34:57;;;;;;;3.20;2.30;;;6.30;99.90;;;;;;4997000;28;20476;-72
2024/02/01 00:37:23;;;;;;;2.80;2.17;;;6.30;99.90;;;;;;4999975;28;20561;-72
2024/02/01 00:39:48;;;;;;;4.30;1.80;;;6.30;99.90;;;;;;4997321;28;20287;-72
2024/02/01 00:42:14;;;;;;;4.40;2.03;;;6.30;99.90;;;;;;5001684;28;20229;-72
2024/02/01 00:44:40;;;;;;;6.20;2.17;;;6.30;99.90;;;;;;4993131;28;20214;-73
2024/02/01 00:47:07;;;;;;;3.80;2.00;;;6.30;99.90;;;;;;4998207;28;20253;-73
2024/02/01 00:49:33;;;;;;;2.60;2.07;;;6.20;99.90;;;;;;4996594;28;20233;-72
2024/02/01 00:51:59;;;;;;;2.80;1.90;;;6.30;99.90;;;;;;5002947;28;20456;-73
2024/02/01 00:54:24;;;;;;;2.13;1.93;;;6.30;99.90;;;;;;5005145;28;20963;-72
2024/02/01 00:56:50;;;;;;;2.97;1.93;;;6.30;99.90;;;;;;4971596;28;20225;-73
2024/02/01 00:59:16;;;;;;;2.20;1.97;;;6.30;99.90;;;;;;4986954;28;20692;-73
2024/02/01 01:01:41;;;;;;;2.77;2.27;;;6.30;99.90;;;;;;4993191;28;20222;-73
2024/02/01 01:04:07;;;;;;;2.53;2.03;;;6.30;99.90;;;;;;4999290;28;20219;-73
2024/02/01 01:06:33;;;;;;;3.90;2.53;;;6.30;99.90;;;;;;5004364;28;20280;-73
2024/02/01 01:08:58;;;;;;;4.67;2.67;;;6.40;99.90;;;;;;4987319;28;20236;-72
2024/02/01 01:11:25;;;;;;;2.00;1.87;;;6.40;99.90;;;;;;4972790;28;20219;-72
2024/02/01 01:13:52;;;;;;;3.90;2.30;;;6.40;99.90;;;;;;4990541;28;20226;-73
2024/02/01 01:16:17;;;;;;;3.60;2.17;;;6.40;99.90;;;;;;4994171;28;20484;-72
2024/02/01 01:18:43;;;;;;;3.83;2.83;;;6.40;99.90;;;;;;4980515;28;20782;-73
2024/02/01 01:21:09;;;;;;;2.60;2.03;;;6.40;99.90;;;;;;4988861;28;20215;-73
2024/02/01 01:23:34;;;;;;;4.27;2.70;;;6.40;99.90;;;;;;4991287;28;20221;-73
2024/02/01 01:26:00;;;;;;;5.57;2.40;;;6.40;99.90;;;;;;4985337;28;20221;-72
2024/02/01 01:28:26;;;;;;;3.73;2.40;;;6.50;99.90;;;;;;4990594;28;20249;-73
2024/02/01 01:30:51;;;;;;;4.20;2.70;;;6.50;99.90;;;;;;5009293;28;20241;-73
2024/02/01 01:33:17;;;;;;;2.60;1.83;;;6.50;99.90;;;;;;5022476;28;20213;-73
2024/02/01 01:35:42;;;;;;;5.83;3.07;;;6.50;99.90;;;;;;4983130;28;20225;-73
2024/02/01 01:38:08;;;;;;;4.80;3.17;;;6.50;99.90;;;;;;4984988;28;20209;-73
2024/02/01 01:40:34;;;;;;;4.97;2.43;;;6.50;99.90;;;;;;4993908;28;20727;-73
2024/02/01 01:42:59;;;;;;;2.17;1.97;;;6.60;99.90;;;;;;4995603;28;20668;-73
2024/02/01 01:45:25;;;;;;;2.23;2.03;;;6.60;99.90;;;;;;5008455;28;20251;-72
2024/02/01 01:47:51;;;;;;;4.87;2.57;;;6.60;99.90;;;;;;5008637;28;20224;-73
2024/02/01 01:50:16;;;;;;;3.03;2.20;;;6.60;99.90;;;;;;5010496;28;20763;-74
2024/02/01 01:52:45;;;;;;;3.00;2.60;;;6.60;99.90;;;;;;5005237;28;20210;-73
2024/02/01 01:55:12;;;;;;;3.07;2.30;;;6.60;99.90;;;;;;4991921;28;20223;-73
2024/02/01 01:57:39;;;;;;;3.03;2.27;;;6.60;99.90;;;;;;4974591;28;20528;-73
2024/02/01 02:00:07;;;;;;;3.67;2.93;;;6.60;99.90;;;;;;4982582;28;20454;-73
2024/02/01 02:02:33;;;;;;;4.10;3.30;;;6.70;99.90;;;;;;4992290;28;20474;-72
2024/02/01 02:05:00;;;;;;;4.33;2.83;;;6.70;99.90;;;;;;4989428;28;20971;-73
2024/02/01 02:07:26;;;;;;;3.70;2.57;;;6.70;99.90;;;;;;4989004;28;20450;-73
2024/02/01 02:09:51;;;;;;;4.97;3.00;;;6.70;99.90;;;;;;4991284;28;20888;-73
2024/02/01 02:12:17;;;;;;;3.67;2.80;;;6.70;99.90;;;;;;5005447;28;20214;-73
2024/02/01 02:14:56;;;;;;;4.30;3.00;;;6.70;99.90;;;;;;5023155;28;20340;-73
2024/02/01 02:17:21;;;;;;;4.10;2.77;;;6.80;99.90;;;;;;5007756;28;20661;-73
2024/02/01 02:19:47;;;;;;;4.13;3.17;;;6.80;99.90;;;;;;4990552;28;20537;-73
2024/02/01 02:22:13;;;;;;;5.00;3.20;;;6.80;99.90;;;;;;4990092;28;20233;-73
2024/02/01 02:24:38;;;;;;;3.40;2.90;;;6.80;99.90;;;;;;4988849;28;20217;-73
2024/02/01 02:27:04;;;;;;;4.87;2.97;;;6.80;99.90;;;;;;4987090;28;20229;-73
2024/02/01 02:29:30;;;;;;;6.90;4.00;;;6.80;99.90;;;;;;4989126;28;20254;-73
2024/02/01 02:31:56;;;;;;;4.03;3.30;;;6.90;99.90;;;;;;4969713;28;20222;-73
2024/02/01 02:34:21;;;;;;;4.70;3.80;;;6.90;99.90;;;;;;4984780;28;20215;-73
2024/02/01 02:36:47;;;;;;;5.93;3.03;;;6.90;99.90;;;;;;4989135;28;20226;-73
2024/02/01 02:39:14;;;;;;;5.00;3.17;;;6.90;99.90;;;;;;4995637;28;20221;-73
2024/02/01 02:41:40;;;;;;;4.40;3.40;;;6.90;99.90;;;;;;4985509;28;20465;-73
2024/02/01 02:44:10;;;;;;;6.60;4.33;;;7.00;99.90;;;;;;4994872;28;20457;-73
2024/02/01 02:46:36;;;;;;;4.07;3.53;;;7.00;99.90;;;;;;5005582;28;20625;-73
2024/02/01 02:49:02;;;;;;;4.73;3.60;;;7.00;99.90;;;;;;4991282;28;20676;-73
2024/02/01 02:51:27;;;;;;;5.67;3.80;;;7.00;99.90;;;;;;5006120;28;20243;-72
2024/02/01 02:53:53;;;;;;;7.40;3.97;;;7.10;99.90;;;;;;4991676;28;20214;-73
2024/02/01 02:56:21;;;;;;;11.40;4.57;;;7.10;99.90;;;;;;4989507;28;20634;-73
2024/02/01 02:58:47;;;;;;;5.97;3.60;;;7.10;99.90;;;;;;5006614;28;20457;-73
2024/02/01 03:01:13;;;;;;;5.80;4.60;;;7.10;99.90;;;;;;5008044;28;20476;-73
2024/02/01 03:03:41;;;;;;;5.60;3.80;;;7.10;99.90;;;;;;5022239;28;20214;-72
2024/02/01 03:06:10;;;;;;;9.13;3.70;;;7.10;99.90;;;;;;5008558;28;20221;-73
2024/02/01 03:08:40;;;;;;;5.40;3.63;;;7.10;99.90;;;;;;5006197;28;20477;-73
2024/02/01 03:11:10;;;;;;;5.83;4.07;;;7.10;99.90;;;;;;4987748;28;20461;-73
2024/02/01 03:13:51;;;;;;;5.47;4.00;;;7.10;99.90;;;;;;4987512;28;20449;-73
2024/02/01 03:16:18;;;;;;;5.30;4.00;;;7.10;99.90;;;;;;4982513;28;20478;-73
2024/02/01 03:18:48;;;;;;;5.20;4.07;;;7.00;99.90;;;;;;4988936;28;20445;-73
2024/02/01 03:21:14;;;;;;;4.63;3.30;;;7.00;99.90;;;;;;5003816;28;20526;-73
2024/02/01 03:23:42;;;;;;;5.13;4.00;;;7.00;99.90;;;;;;5006613;28;20473;-73
2024/02/01 03:26:08;;;;;;;5.93;4.17;;;7.00;99.90;;;;;;4997235;28;20457;-72
2024/02/01 03:28:34;;;;;;;5.50;4.10;;;7.00;99.90;;;;;;4985232;28;20815;-72
2024/02/01 03:31:02;;;;;;;7.73;4.53;;;7.00;99.90;;;;;;4977569;28;20537;-73
2024/02/01 03:33:30;;;;;;;7.87;5.10;;;7.10;99.90;;;;;;4989291;28;20599;-73
2024/02/01 03:35:57;;;;;;;8.90;4.80;;;7.00;99.90;;;;;;4986485;28;20862;-73
2024/02/01 03:38:24;;;;;;;6.67;4.90;;;7.00;99.90;;;;;;4988924;28;20460;-72
2024/02/01 03:40:49;;;;;;;8.07;4.30;;;7.00;99.90;;;;;;4982733;28;20452;-73
2024/02/01 03:43:15;;;;;;;7.30;4.07;;;7.00;99.90;;;;;;4987631;28;21074;-73
2024/02/01 03:45:48;;;;;;;8.87;5.57;;;7.00;99.90;;;;;;4989139;28;20281;-73
2024/02/01 03:48:18;;;;;;;6.00;4.33;;;7.00;99.90;;;;;;4982721;28;20222;-73
2024/02/01 03:50:44;;;;;;;9.83;5.67;;;7.00;99.90;;;;;;4986211;28;20450;-73
2024/02/01 03:53:13;;;;;;;9.80;5.20;;;7.00;99.90;;;;;;5003367;28;20967;-73
2024/02/01 03:55:40;;;;;;;9.00;5.27;;;6.90;99.90;;;;;;5015034;28;20456;-73
2024/02/01 03:58:07;;;;;;;7.57;5.50;;;6.90;99.90;;;;;;5016465;28;20448;-73
2024/02/01 04:00:33;;;;;;;6.13;3.90;;;6.90;99.90;;;;;;4988573;28;21073;-70
2024/02/01 04:03:03;;;;;;;5.83;4.27;;;6.90;99.90;;;;;;5011335;28;20451;-73
2024/02/01 04:05:36;;;;;;;7.47;5.10;;;7.00;99.90;;;;;;5018835;28;20228;-73
2024/02/01 04:08:06;;;;;;;9.80;4.87;;;6.90;99.90;;;;;;4995518;28;20450;-74
2024/02/01 04:10:40;;;;;;;7.43;4.60;;;6.90;99.90;;;;;;4997903;28;20449;-73
2024/02/01 04:13:07;;;;;;;9.60;5.30;;;6.90;99.90;;;;;;4979769;28;20480;-73
2024/02/01 04:15:34;;;;;;;12.83;5.67;;;6.90;99.90;;;;;;4993617;28;20458;-73
2024/02/01 04:18:04;;;;;;;12.47;4.90;;;6.90;99.90;;;;;;4999862;28;20453;-73
2024/02/01 04:20:35;;;;;;;6.57;4.87;;;6.80;99.90;;;;;;4987722;28;20452;-73
2024/02/01 04:23:00;;;;;;;6.87;4.57;;;6.80;99.90;;;;;;5021135;28;20456;-74
2024/02/01 04:25:26;;;;;;;6.77;4.80;;;6.80;99.90;;;;;;4980075;28;20454;-71
2024/02/01 04:27:53;;;;;;;8.63;5.67;;;6.90;99.90;;;;;;5030983;28;20218;-73
2024/02/01 04:30:20;;;;;;;6.30;5.30;;;6.80;99.90;;;;;;5009098;28;20221;-73
2024/02/01 04:32:47;;;;;;;7.23;5.30;;;6.80;99.90;;;;;;4985986;28;21127;-73
2024/02/01 04:35:14;;;;;;;6.13;4.93;;;6.80;99.90;;;;;;4996128;28;20493;-73
2024/02/01 04:37:41;;;;;;;7.70;4.87;;;6.80;99.90;;;;;;4990532;28;20566;-73
2024/02/01 04:40:08;;;;;;;11.90;6.27;;;6.80;99.90;;;;;;5000006;28;20457;-73
2024/02/01 04:42:35;;;;;;;7.10;5.33;;;6.80;99.90;;;;;;4996824;28;20457;-72
2024/02/01 04:45:05;;;;;;;12.40;5.43;;;6.80;99.90;;;;;;4991689;28;20508;-73
2024/02/01 04:47:32;;;;;;;9.50;5.30;;;6.80;99.90;;;;;;4991846;28;20457;-72
2024/02/01 04:49:58;;;;;;;11.60;5.83;;;6.80;99.90;;;;;;4981546;28;20457;-73
2024/02/01 04:52:24;;;;;;;13.13;6.10;;;6.80;99.90;;;;;;5011242;28;20452;-73
2024/02/01 04:54:49;;;;;;;11.53;6.50;;;6.80;99.90;;;;;;4991506;28;20569;-74
2024/02/01 04:57:15;;;;;;;10.93;5.57;;;6.80;99.90;;;;;;5004865;28;20209;-73
2024/02/01 04:59:45;;;;;;;8.77;5.50;;;6.80;99.90;;;;;;4973207;28;20218;-73
2024/02/01 05:02:14;;;;;;;18.73;6.20;;;6.80;99.90;;;;;;4974028;28;20289;-74
2024/02/01 05:04:41;;;;;;;7.87;5.17;;;6.80;99.90;;;;;;4989433;28;21145;-73
2024/02/01 05:07:07;;;;;;;10.10;5.90;;;6.80;99.90;;;;;;4991955;28;20481;-74
2024/02/01 05:09:41;;;;;;;8.00;5.57;;;6.80;99.90;;;;;;4991251;28;20493;-72
2024/02/01 05:12:07;;;;;;;9.10;5.67;;;6.80;99.90;;;;;;4990088;28;20291;-75
2024/02/01 05:14:34;;;;;;;9.00;5.23;;;6.80;99.90;;;;;;5000313;28;20532;-74
2024/02/01 05:17:00;;;;;;;12.23;5.60;;;6.80;99.90;;;;;;4992828;28;20536;-73
2024/02/01 05:19:26;;;;;;;10.37;6.23;;;6.80;99.90;;;;;;4993184;28;20472;-74
2024/02/01 05:21:55;;;;;;;9.93;6.50;;;6.80;99.90;;;;;;4991651;28;20228;-74
2024/02/01 05:24:22;;;;;;;8.73;5.90;;;6.80;99.90;;;;;;4996300;28;20536;-73
2024/02/01 05:26:51;;;;;;;11.53;6.13;;;6.80;99.90;;;;;;5004300;28;20473;-74
2024/02/01 05:29:21;;;;;;;7.90;5.40;;;6.80;99.90;;;;;;4991643;28;20522;-74
2024/02/01 05:31:50;;;;;;;6.67;5.57;;;6.80;99.90;;;;;;5002850;28;20457;-74
2024/02/01 05:34:21;;;;;;;9.63;6.00;;;6.80;99.90;;;;;;4993680;28;20532;-74
2024/02/01 05:36:48;;;;;;;5.80;5.20;;;6.80;99.90;;;;;;4990390;28;20547;-73
2024/02/01 05:39:26;;;;;;;7.87;6.10;;;6.80;99.90;;;;;;4999499;28;20453;-74
2024/02/01 05:41:55;;;;;;;7.40;5.40;;;6.80;99.90;;;;;;4989891;28;20461;-74
2024/02/01 05:44:21;;;;;;;6.40;5.40;;;6.80;99.90;;;;;;4991027;28;20846;-74
2024/02/01 05:46:56;;;;;;;9.13;6.03;;;6.80;99.90;;;;;;4979939;28;20525;-74
2024/02/01 05:49:22;;;;;;;12.00;6.07;;;6.80;99.90;;;;;;4972497;28;20480;-73
2024/02/01 05:51:50;;;;;;;8.93;6.60;;;6.80;99.90;;;;;;4995638;28;20481;-74
2024/02/01 05:54:17;;;;;;;7.80;5.63;;;6.80;99.90;;;;;;4989140;28;20485;-74
2024/02/01 05:56:44;;;;;;;10.37;6.13;;;6.80;99.90;;;;;;4982082;28;20996;-74
2024/02/01 05:59:13;;;;;;;5.90;5.20;;;6.80;99.90;;;;;;4982405;28;20519;-75
2024/02/01 06:01:46;;;;;;;7.60;4.83;;;6.80;99.90;;;;;;4995442;28;21023;-73
2024/02/01 06:04:12;;;;;;;7.40;4.67;;;6.80;99.90;;;;;;4989781;28;20476;-73
2024/02/01 06:06:43;;;;;;;7.80;5.77;;;6.80;99.90;;;;;;4986942;28;20483;-72
2024/02/01 06:09:11;;;;;;;8.77;5.40;;;6.80;99.90;;;;;;4972839;28;20489;-73
2024/02/01 06:11:46;;;;;;;7.40;5.17;;;6.80;99.90;;;;;;4987135;28;20957;-72
2024/02/01 06:14:14;;;;;;;6.90;4.60;;;6.80;99.90;;;;;;4985787;28;20464;-74
2024/02/01 06:16:43;;;;;;;7.60;5.20;;;6.80;99.90;;;;;;4989730;28;20461;-73
2024/02/01 06:19:09;;;;;;;9.37;6.20;;;6.80;99.90;;;;;;5002568;28;20537;-72
2024/02/01 06:21:35;;;;;;;8.47;5.33;;;6.80;99.90;;;;;;4993028;28;20669;-73
2024/02/01 06:24:01;;;;;;;9.57;4.77;;;6.80;99.90;;;;;;4988602;28;20277;-74
2024/02/01 06:26:28;;;;;;;6.80;4.90;;;6.80;99.90;;;;;;5004631;28;20264;-74
2024/02/01 06:29:00;;;;;;;7.40;5.00;;;6.80;99.90;;;;;;5008222;28;20543;-74
2024/02/01 06:31:26;;;;;;;10.53;5.67;;;6.80;99.90;;;;;;5020713;28;20541;-73
2024/02/01 06:33:53;;;;;;;6.70;5.10;;;6.80;99.90;;;;;;5003874;28;20510;-73
2024/02/01 06:36:20;;;;;;;5.20;4.27;;;6.90;99.90;;;;;;5036433;28;20507;-74
2024/02/01 06:44:21;;;;;;;7.93;4.63;;;6.90;99.90;;;;;;4984261;28;20904;-73
2024/02/01 06:49:59;;;;;;;6.20;4.77;;;6.90;99.90;;;;;;4983536;28;20482;-73
2024/02/01 06:54:53;;;;;;;5.80;4.60;;;6.90;99.90;;;;;;4979962;28;21065;-73
2024/02/01 06:57:22;;;;;;;5.07;4.23;;;6.90;99.90;;;;;;4969323;28;20458;-73
2024/02/01 07:02:35;;;;;;;4.77;4.27;;;6.90;99.90;;;;;;5002957;28;20511;-74
2024/02/01 07:08:02;;;;;;;9.70;5.83;;;7.00;99.90;;;;;;4981852;28;20454;-74
2024/02/01 07:10:43;;;;;;;4.80;3.83;;;7.00;99.90;;;;;;4986109;28;20460;-74
2024/02/01 07:13:21;;;;;;;4.37;3.63;;;6.90;99.90;;;;;;4996734;28;20895;-74
2024/02/01 07:16:04;;;;;;;5.80;4.10;;;6.90;99.90;;;;;;5014453;28;20492;-73
2024/02/01 07:18:30;;;;;;;6.10;4.20;;;7.00;99.90;;;;;;4997531;28;20471;-74
2024/02/01 07:20:58;;;;;;;5.93;3.70;;;7.00;99.90;;;;;;5005072;28;20869;-74
2024/02/01 07:23:34;;;;;;;4.23;3.70;;;7.00;99.90;;;;;;5004778;28;20556;-76
2024/02/01 07:26:02;;;;;;;5.60;4.13;;;7.00;99.90;;;;;;5003485;28;20468;-73
2024/02/01 07:58:39;;;;;;;3.53;3.00;;;7.20;99.90;;;;;;4979481;28;20446;-74
2024/02/01 08:01:24;;;;;;;3.23;2.93;;;7.30;99.90;;;;;;4988447;28;20488;-75
2024/02/01 08:04:12;;;;;;;2.90;2.70;;;7.30;99.90;;;;;;4983972;28;20490;-74
2024/02/01 08:09:24;;;;;;;2.90;2.67;;;7.30;99.90;;;;;;4979383;28;20841;-75
2024/02/01 08:11:50;;;;;;;7.20;3.43;;;7.40;99.90;;;;;;4976969;28;20469;-74
2024/02/01 08:14:15;;;;;;;3.40;3.10;;;7.40;99.90;;;;;;4983195;28;20469;-74
2024/02/01 08:16:43;;;;;;;3.80;3.50;;;7.40;99.90;;;;;;4977475;28;20532;-74
2024/02/01 08:19:09;;;;;;;3.43;3.17;;;7.40;99.90;;;;;;4980869;28;20224;-74
2024/02/01 08:21:37;;;;;;;4.50;3.00;;;7.50;99.90;;;;;;4982772;28;20532;-74
2024/02/01 08:24:06;;;;;;;3.60;3.30;;;7.40;99.90;;;;;;4978795;28;20477;-74
2024/02/01 08:26:39;;;;;;;5.03;3.20;;;7.50;99.90;;;;;;4978889;28;20457;-75
2024/02/01 08:29:14;;;;;;;4.73;4.27;;;7.50;99.90;;;;;;4966028;28;20514;-76
2024/02/01 08:31:40;;;;;;;7.50;3.90;;;7.50;99.90;;;;;;4988917;28;20930;-74
2024/02/01 08:34:07;;;;;;;4.03;3.33;;;7.60;99.90;;;;;;4974406;28;20599;-75
2024/02/01 08:36:41;;;;;;;5.50;3.93;;;7.60;99.90;;;;;;5002097;28;20236;-74
2024/02/01 08:39:15;;;;;;;4.53;3.50;;;7.60;99.90;;;;;;5003834;28;20540;-76
2024/02/01 08:41:42;;;;;;;3.70;3.20;;;7.60;99.90;;;;;;4996336;28;20464;-75
2024/02/01 08:44:08;;;;;;;6.27;4.13;;;7.60;99.90;;;;;;5001366;28;20464;-75
2024/02/01 08:46:35;;;;;;;5.23;3.73;;;7.70;99.90;;;;;;5004015;28;20499;-76
2024/02/01 08:49:03;;;;;;;7.10;4.13;;;7.70;99.90;;;;;;5003050;28;20476;-73
2024/02/01 08:51:29;;;;;;;6.30;5.30;;;7.70;99.90;;;;;;4985940;28;20468;-74
2024/02/01 08:53:54;;;;;;;4.80;4.10;;;7.80;99.90;;;;;;5005139;28;20460;-73
2024/02/01 08:56:23;;;;;;;4.83;3.40;;;7.80;99.90;;;;;;5005283;28;20224;-74
2024/02/01 08:58:49;;;;;;;4.37;3.83;;;7.90;99.90;;;;;;4985894;28;20244;-73
2024/02/01 09:01:27;;;;;;;7.50;4.70;;;7.90;99.90;;;;;;5005774;28;20499;-73
2024/02/01 09:03:53;;;;;;;5.30;4.60;;;8.00;99.90;;;;;;5006899;28;20451;-73
2024/02/01 09:06:19;;;;;;;6.23;4.17;;;8.00;99.90;;;;;;5005502;28;20464;-73
2024/02/01 09:08:45;;;;;;;5.00;3.77;;;8.00;99.90;;;;;;5002991;28;20272;-73
2024/02/01 09:11:12;;;;;;;5.07;4.47;;;8.10;99.90;;;;;;5005495;28;20457;-74
2024/02/01 09:13:47;;;;;;;4.77;4.00;;;8.10;99.90;;;;;;5005844;28;20510;-73
2024/02/01 09:16:19;;;;;;;4.30;3.80;;;8.10;99.90;;;;;;5004819;28;20452;-74
2024/02/01 09:18:44;;;;;;;4.77;3.60;;;8.10;99.90;;;;;;5002946;28;20460;-73
2024/02/01 09:21:10;;;;;;;6.20;4.37;;;8.20;99.90;;;;;;5006847;28;20444;-73
2024/02/01 09:23:36;;;;;;;11.80;6.97;;;8.20;99.90;;;;;;5014317;28;20704;-74
2024/02/01 09:26:01;;;;;;;11.17;6.07;;;8.20;99.90;;;;;;4972229;28;20231;-73
2024/02/01 09:28:27;;;;;;;14.63;9.57;;;8.20;99.90;;;;;;4969550;28;20246;-74
2024/02/01 09:30:55;;;;;;;24.80;15.47;;;8.20;99.90;;;;;;4985953;28;20272;-74
2024/02/01 09:33:27;;;;;;;11.73;10.53;;;8.20;99.90;;;;;;4987292;28;20720;-73
2024/02/01 09:35:53;;;;;;;10.93;8.77;;;8.20;99.90;;;;;;4980195;28;20464;-73
2024/02/01 09:38:19;;;;;;;13.20;10.63;;;8.20;99.90;;;;;;4978716;28;20484;-73
2024/02/01 09:40:47;;;;;;;11.37;8.93;;;8.30;99.90;;;;;;4982523;28;20490;-73
2024/02/01 09:43:20;;;;;;;13.23;8.97;;;8.30;99.90;;;;;;4968812;28;20213;-73
2024/02/01 09:45:47;;;;;;;19.10;11.27;;;8.30;99.90;;;;;;4981500;28;20838;-72
2024/02/01 09:48:16;;;;;;;22.30;13.13;;;8.30;99.90;;;;;;4989059;28;20510;-73
2024/02/01 09:50:55;;;;;;;19.97;10.87;;;8.30;99.90;;;;;;4967386;28;20473;-73
2024/02/01 09:53:26;;;;;;;19.07;11.87;;;8.30;99.90;;;;;;4987773;28;20539;-72
2024/02/01 09:55:53;;;;;;;37.40;18.77;;;8.30;99.90;;;;;;5006693;28;20986;-73
2024/02/01 09:58:19;;;;;;;31.47;18.57;;;8.30;99.90;;;;;;4988323;28;20864;-74
2024/02/01 10:00:45;;;;;;;27.57;14.37;;;8.30;99.90;;;;;;5002967;28;20999;-73
2024/02/01 10:03:15;;;;;;;19.57;10.43;;;8.30;99.90;;;;;;5001747;28;20451;-73
2024/02/01 10:05:42;;;;;;;10.70;7.10;;;8.40;99.90;;;;;;5003663;28;20471;-73
2024/02/01 10:08:18;;;;;;;8.00;5.83;;;8.40;99.90;;;;;;5003327;28;20455;-73
2024/02/01 10:10:45;;;;;;;5.43;4.67;;;8.40;99.90;;;;;;5003625;28;20489;-73
2024/02/01 10:13:18;;;;;;;4.67;4.07;;;8.40;99.90;;;;;;5004881;28;20495;-73
2024/02/01 10:15:45;;;;;;;5.60;4.20;;;8.40;99.90;;;;;;5006840;28;20535;-73
2024/02/01 10:18:19;;;;;;;4.87;3.50;;;8.50;99.90;;;;;;5009037;28;20495;-73
2024/02/01 10:21:21;;;;;;;5.03;4.40;;;8.50;99.90;;;;;;4983292;28;20458;-73
2024/02/01 10:23:47;;;;;;;5.20;4.00;;;8.50;99.90;;;;;;4990339;28;20544;-73
2024/02/01 10:26:23;;;;;;;3.57;3.20;;;8.60;99.90;;;;;;4986647;28;20548;-73
2024/02/01 10:28:49;;;;;;;5.17;3.90;;;8.60;99.90;;;;;;4983295;28;20247;-73
2024/02/01 10:31:17;;;;;;;4.03;2.90;;;8.60;99.90;;;;;;5004964;28;20482;-73
2024/02/01 10:33:45;;;;;;;4.23;3.23;;;8.60;99.90;;;;;;5002685;28;20482;-72
2024/02/01 10:36:13;;;;;;;4.03;3.03;;;8.60;99.90;;;;;;5002807;28;20457;-73
2024/02/01 10:38:44;;;;;;;4.67;2.60;;;8.60;99.90;;;;;;5005510;28;20838;-73
2024/02/01 10:41:15;;;;;;;3.03;2.47;;;8.60;99.90;;;;;;5007734;28;20864;-74
2024/02/01 10:43:45;;;;;;;3.53;2.50;;;8.70;99.90;;;;;;5002804;28;20468;-72
2024/02/01 10:46:27;;;;;;;3.37;3.07;;;8.70;99.90;;;;;;5001448;28;20465;-73
2024/02/01 10:49:06;;;;;;;8.23;3.20;;;8.60;99.90;;;;;;4982433;28;20469;-73
2024/02/01 10:51:33;;;;;;;3.93;3.10;;;8.70;99.90;;;;;;5000999;28;20834;-72
2024/02/01 10:54:01;;;;;;;3.10;2.53;;;8.70;99.90;;;;;;5002624;28;20460;-74
2024/02/01 10:56:29;;;;;;;4.50;2.87;;;8.80;99.90;;;;;;5002589;28;20487;-73
2024/02/01 10:59:07;;;;;;;3.37;2.90;;;9.00;99.90;;;;;;5000189;28;21010;-74
2024/02/01 11:01:34;;;;;;;2.40;2.13;;;9.00;99.90;;;;;;5014225;28;20587;-74
2024/02/01 11:04:01;;;;;;;4.43;2.93;;;9.10;99.90;;;;;;5012984;28;20535;-73
2024/02/01 11:06:28;;;;;;;4.47;3.23;;;9.10;99.90;;;;;;5013726;28;20563;-73
2024/02/01 11:09:01;;;;;;;4.40;3.23;;;9.10;99.90;;;;;;5004331;28;20503;-73
2024/02/01 11:11:34;;;;;;;5.80;3.33;;;9.20;99.90;;;;;;5002586;28;20473;-73
2024/02/01 11:14:14;;;;;;;4.90;3.30;;;9.30;99.90;;;;;;5000071;28;20904;-73
2024/02/01 11:16:50;;;;;;;5.13;2.90;;;9.40;99.90;;;;;;5000104;28;20472;-73
2024/02/01 11:19:24;;;;;;;3.37;2.90;;;9.30;99.90;;;;;;5001801;28;20472;-73
2024/02/01 11:21:55;;;;;;;5.97;3.77;;;9.50;99.90;;;;;;5015396;28;20546;-73
2024/02/01 11:24:32;;;;;;;4.30;2.73;;;9.60;99.90;;;;;;5003636;28;20464;-73
2024/02/01 11:27:03;;;;;;;6.13;3.80;;;9.50;99.90;;;;;;4983817;28;20509;-74
2024/02/01 11:29:34;;;;;;;4.57;3.63;;;9.40;99.90;;;;;;4995188;28;20512;-73
2024/02/01 11:32:05;;;;;;;3.33;2.97;;;9.60;99.90;;;;;;4984554;28;20454;-75
2024/02/01 11:34:33;;;;;;;4.60;3.00;;;9.80;99.90;;;;;;4991318;28;20457;-74
2024/02/01 11:37:00;;;;;;;3.60;3.10;;;9.70;99.90;;;;;;5013823;28;20582;-74
2024/02/01 11:39:27;;;;;;;4.60;2.37;;;9.80;99.90;;;;;;4981470;28;20473;-74
2024/02/01 11:41:54;;;;;;;4.30;3.20;;;9.80;99.90;;;;;;5003713;28;20456;-75
2024/02/01 11:44:23;;;;;;;5.57;3.13;;;9.80;99.90;;;;;;4985126;28;20842;-73
2024/02/01 11:46:50;;;;;;;4.80;3.13;;;9.80;99.90;;;;;;4982877;28;20500;-74
2024/02/01 11:49:27;;;;;;;4.80;3.70;;;9.80;99.90;;;;;;4979739;28;20491;-73
2024/02/01 11:51:52;;;;;;;3.80;3.50;;;9.80;99.90;;;;;;4978092;28;20543;-73
2024/02/01 11:54:19;;;;;;;5.80;3.50;;;9.90;99.90;;;;;;4968673;28;20562;-74
2024/02/01 11:56:44;;;;;;;3.60;3.30;;;9.90;99.90;;;;;;4981867;28;20229;-73
2024/02/01 11:59:11;;;;;;;4.47;3.57;;;9.80;99.90;;;;;;4995320;28;20526;-73
2024/02/01 12:01:37;;;;;;;6.23;4.03;;;9.70;99.90;;;;;;4975990;28;20221;-75
2024/02/01 12:04:06;;;;;;;6.23;4.00;;;9.80;99.90;;;;;;4982420;28;20551;-74
2024/02/01 12:06:32;;;;;;;5.40;3.70;;;9.80;99.90;;;;;;4981637;28;20472;-74
2024/02/01 12:08:59;;;;;;;4.83;4.10;;;9.80;99.90;;;;;;4968454;28;20477;-74
2024/02/01 12:11:29;;;;;;;5.53;3.63;;;9.80;99.90;;;;;;4993371;28;20259;-74
2024/02/01 12:14:00;;;;;;;5.57;4.17;;;9.70;99.90;;;;;;5004393;28;20472;-74
2024/02/01 12:16:30;;;;;;;6.13;4.43;;;9.70;99.90;;;;;;5000222;28;20476;-74
2024/02/01 12:19:00;;;;;;;4.57;3.77;;;9.60;99.90;;;;;;5002462;28;20962;-74
2024/02/01 12:21:26;;;;;;;4.90;3.90;;;9.70;99.90;;;;;;4983792;28;20475;-74
2024/02/01 12:23:59;;;;;;;6.30;4.27;;;9.80;99.90;;;;;;4998820;28;20468;-74
2024/02/01 12:26:29;;;;;;;5.30;4.00;;;9.90;99.90;;;;;;4997910;28;20471;-73
2024/02/01 12:28:55;;;;;;;4.97;3.50;;;9.90;99.90;;;;;;4997545;28;20528;-75
2024/02/01 12:31:22;;;;;;;4.20;3.30;;;10.00;99.90;;;;;;5000359;28;20498;-75
2024/02/01 12:33:53;;;;;;;4.90;3.20;;;10.00;99.90;;;;;;4999736;28;20871;-74
2024/02/01 12:36:19;;;;;;;4.37;3.97;;;10.00;99.90;;;;;;4986494;28;20856;-74
2024/02/01 12:38:45;;;;;;;8.50;4.63;;;10.10;99.90;;;;;;4973935;28;20545;-74
2024/02/01 12:41:12;;;;;;;5.00;3.40;;;9.90;99.90;;;;;;4980272;28;20206;-74
2024/02/01 12:43:38;;;;;;;3.07;2.70;;;9.80;99.90;;;;;;4997348;28;20213;-74
2024/02/01 12:46:04;;;;;;;3.50;3.20;;;9.90;99.90;;;;;;5000636;28;20460;-73
2024/02/01 12:48:30;;;;;;;4.27;3.43;;;9.90;99.90;;;;;;4993766;28;20464;-74
2024/02/01 12:50:58;;;;;;;4.33;3.13;;;9.90;99.90;;;;;;5000636;28;20214;-74
2024/02/01 12:53:23;;;;;;;3.60;2.77;;;9.90;99.90;;;;;;5002057;28;20675;-75
2024/02/01 12:55:49;;;;;;;2.17;1.97;;;10.10;99.90;;;;;;4999225;28;20535;-73
2024/02/01 12:58:18;;;;;;;3.50;2.53;;;10.20;99.90;;;;;;4999878;28;20700;-74
2024/02/01 13:00:44;;;;;;;3.87;2.50;;;10.20;99.90;;;;;;4999026;28;20221;-73
2024/02/01 13:03:10;;;;;;;4.10;3.10;;;10.20;99.90;;;;;;5005247;28;20831;-74
2024/02/01 13:05:36;;;;;;;3.73;2.70;;;10.00;99.90;;;;;;5002302;28;20456;-74
2024/02/01 13:08:04;;;;;;;8.30;3.07;;;10.00;99.90;;;;;;4999290;28;20456;-75
2024/02/01 13:10:38;;;;;;;2.93;2.50;;;9.80;99.90;;;;;;4992175;28;20230;-74
2024/02/01 13:13:07;;;;;;;6.07;3.23;;;9.80;99.90;;;;;;5002265;28;21068;-74
2024/02/01 13:15:34;;;;;;;4.67;2.97;;;9.80;99.90;;;;;;5008271;28;20486;-74
2024/02/01 13:17:59;;;;;;;6.60;2.70;;;9.80;99.90;;;;;;4987524;28;20544;-74
2024/02/01 13:20:26;;;;;;;4.47;2.90;;;9.80;99.90;;;;;;4998065;28;20464;-72
2024/02/01 13:22:53;;;;;;;5.57;3.20;;;9.80;99.90;;;;;;5017626;28;20347;-74
2024/02/01 13:25:19;;;;;;;4.77;3.33;;;9.80;99.90;;;;;;5002469;28;20440;-74
2024/02/01 13:27:47;;;;;;;4.27;3.23;;;9.80;99.90;;;;;;5003614;28;20617;-74
2024/02/01 13:30:14;;;;;;;3.27;2.97;;;9.80;99.90;;;;;;5004001;28;20567;-74
2024/02/01 13:32:40;;;;;;;2.83;2.50;;;9.90;99.90;;;;;;4994083;28;20476;-71
2024/02/01 13:35:06;;;;;;;2.10;1.83;;;9.80;99.90;;;;;;4977605;28;21094;-74
2024/02/01 13:37:34;;;;;;;6.73;3.10;;;9.80;99.90;;;;;;4978358;28;20607;-73
2024/02/01 13:40:05;;;;;;;4.30;3.40;;;9.80;99.90;;;;;;4999666;28;20213;-74
2024/02/01 13:42:32;;;;;;;2.77;2.37;;;9.80;99.90;;;;;;5002350;28;20460;-74
2024/02/01 13:44:59;;;;;;;2.43;2.00;;;9.70;99.90;;;;;;4974582;28;20476;-73
2024/02/01 13:47:25;;;;;;;3.20;2.47;;;9.80;99.90;;;;;;4982038;28;20693;-73
2024/02/01 13:49:52;;;;;;;3.00;2.73;;;9.80;99.90;;;;;;4984533;28;20538;-74